sensor_id;sensor_type;location;lat;lon;timestamp;temperature;humidity
16517;DHT22;8371;52.272;9.746;2023-03-04T00:01:42;6.40;73.80
16517;DHT22;8371;52.272;9.746;2023-03-04T00:04:08;6.40;73.90
16517;DHT22;8371;52.272;9.746;2023-03-04T00:06:33;6.50;73.80
16517;DHT22;8371;52.272;9.746;2023-03-04T00:08:59;6.50;73.80
16517;DHT22;8371;52.272;9.746;2023-03-04T00:11:25;6.50;73.80
16517;DHT22;8371;52.272;9.746;2023-03-04T00:13:51;6.50;73.90
16517;DHT22;8371;52.272;9.746;2023-03-04T00:16:17;6.50;73.90
16517;DHT22;8371;52.272;9.746;2023-03-04T00:18:43;6.50;73.80
16517;DHT22;8371;52.272;9.746;2023-03-04T00:21:08;6.50;73.70
16517;DHT22;8371;52.272;9.746;2023-03-04T00:23:34;6.60;73.80
16517;DHT22;8371;52.272;9.746;2023-03-04T00:26:00;6.60;73.80
16517;DHT22;8371;52.272;9.746;2023-03-04T00:28:25;6.60;73.80
16517;DHT22;8371;52.272;9.746;2023-03-04T00:30:52;6.60;73.90
16517;DHT22;8371;52.272;9.746;2023-03-04T00:33:18;6.60;73.80
16517;DHT22;8371;52.272;9.746;2023-03-04T00:35:43;6.60;74.60
16517;DHT22;8371;52.272;9.746;2023-03-04T00:38:09;6.60;73.80
16517;DHT22;8371;52.272;9.746;2023-03-04T00:40:35;6.60;73.70
16517;DHT22;8371;52.272;9.746;2023-03-04T00:43:01;6.70;73.80
16517;DHT22;8371;52.272;9.746;2023-03-04T00:45:27;6.60;73.80
16517;DHT22;8371;52.272;9.746;2023-03-04T00:47:52;6.70;73.80
16517;DHT22;8371;52.272;9.746;2023-03-04T00:50:18;6.70;73.80
16517;DHT22;8371;52.272;9.746;2023-03-04T00:52:44;6.70;73.80
16517;DHT22;8371;52.272;9.746;2023-03-04T00:55:09;6.70;73.80
16517;DHT22;8371;52.272;9.746;2023-03-04T00:57:35;6.70;73.80
16517;DHT22;8371;52.272;9.746;2023-03-04T01:00:01;6.70;73.80
16517;DHT22;8371;52.272;9.746;2023-03-04T01:02:27;6.70;73.70
16517;DHT22;8371;52.272;9.746;2023-03-04T01:04:52;6.80;73.10
16517;DHT22;8371;52.272;9.746;2023-03-04T01:07:18;6.80;73.80
16517;DHT22;8371;52.272;9.746;2023-03-04T01:09:44;6.80;73.90
16517;DHT22;8371;52.272;9.746;2023-03-04T01:12:10;6.80;73.80
16517;DHT22;8371;52.272;9.746;2023-03-04T01:14:35;6.80;73.80
16517;DHT22;8371;52.272;9.746;2023-03-04T01:17:01;6.80;73.80
16517;DHT22;8371;52.272;9.746;2023-03-04T01:19:27;6.80;73.80
16517;DHT22;8371;52.272;9.746;2023-03-04T01:21:52;6.90;73.80
16517;DHT22;8371;52.272;9.746;2023-03-04T01:24:18;6.80;73.80
16517;DHT22;8371;52.272;9.746;2023-03-04T01:26:44;6.90;73.80
16517;DHT22;8371;52.272;9.746;2023-03-04T01:29:09;6.90;73.80
16517;DHT22;8371;52.272;9.746;2023-03-04T01:31:35;6.90;73.70
16517;DHT22;8371;52.272;9.746;2023-03-04T01:34:00;6.90;73.70
16517;DHT22;8371;52.272;9.746;2023-03-04T01:36:26;6.90;73.80
16517;DHT22;8371;52.272;9.746;2023-03-04T01:38:52;6.90;73.70
16517;DHT22;8371;52.272;9.746;2023-03-04T01:41:22;7.00;73.80
16517;DHT22;8371;52.272;9.746;2023-03-04T01:43:47;7.00;73.80
16517;DHT22;8371;52.272;9.746;2023-03-04T01:46:13;7.00;73.70
16517;DHT22;8371;52.272;9.746;2023-03-04T01:48:40;6.90;73.70
16517;DHT22;8371;52.272;9.746;2023-03-04T01:51:11;6.90;73.60
16517;DHT22;8371;52.272;9.746;2023-03-04T01:53:35;7.00;74.20
16517;DHT22;8371;52.272;9.746;2023-03-04T01:56:14;6.90;73.70
16517;DHT22;8371;52.272;9.746;2023-03-04T01:58:39;7.00;73.70
16517;DHT22;8371;52.272;9.746;2023-03-04T02:01:05;7.00;73.80
16517;DHT22;8371;52.272;9.746;2023-03-04T02:03:31;7.00;73.80
16517;DHT22;8371;52.272;9.746;2023-03-04T02:05:57;7.00;73.80
16517;DHT22;8371;52.272;9.746;2023-03-04T02:08:23;7.00;73.80
16517;DHT22;8371;52.272;9.746;2023-03-04T02:10:50;7.00;73.80
16517;DHT22;8371;52.272;9.746;2023-03-04T02:13:16;7.00;73.70
16517;DHT22;8371;52.272;9.746;2023-03-04T02:15:43;7.00;73.70
16517;DHT22;8371;52.272;9.746;2023-03-04T02:18:18;7.10;73.90
16517;DHT22;8371;52.272;9.746;2023-03-04T02:23:34;7.10;73.90
16517;DHT22;8371;52.272;9.746;2023-03-04T02:28:41;7.10;73.80
16517;DHT22;8371;52.272;9.746;2023-03-04T02:31:34;7.10;73.80
16517;DHT22;8371;52.272;9.746;2023-03-04T02:34:06;7.10;73.90
16517;DHT22;8371;52.272;9.746;2023-03-04T02:36:35;7.10;73.80
16517;DHT22;8371;52.272;9.746;2023-03-04T02:39:29;7.10;73.80
16517;DHT22;8371;52.272;9.746;2023-03-04T02:41:54;7.10;73.80
16517;DHT22;8371;52.272;9.746;2023-03-04T02:44:26;7.10;73.80
16517;DHT22;8371;52.272;9.746;2023-03-04T02:46:53;7.10;73.90
16517;DHT22;8371;52.272;9.746;2023-03-04T02:49:20;7.10;73.90
16517;DHT22;8371;52.272;9.746;2023-03-04T02:51:51;7.10;73.90
16517;DHT22;8371;52.272;9.746;2023-03-04T02:54:19;7.10;73.90
16517;DHT22;8371;52.272;9.746;2023-03-04T02:56:47;7.10;73.90
16517;DHT22;8371;52.272;9.746;2023-03-04T02:59:14;7.20;73.90
16517;DHT22;8371;52.272;9.746;2023-03-04T03:01:39;7.10;73.90
16517;DHT22;8371;52.272;9.746;2023-03-04T03:04:05;7.10;73.90
16517;DHT22;8371;52.272;9.746;2023-03-04T03:06:31;7.20;74.00
16517;DHT22;8371;52.272;9.746;2023-03-04T03:08:56;7.20;73.90
16517;DHT22;8371;52.272;9.746;2023-03-04T03:11:22;7.20;74.00
16517;DHT22;8371;52.272;9.746;2023-03-04T03:13:47;7.20;73.90
16517;DHT22;8371;52.272;9.746;2023-03-04T03:16:13;7.20;74.00
16517;DHT22;8371;52.272;9.746;2023-03-04T03:18:39;7.20;74.00
16517;DHT22;8371;52.272;9.746;2023-03-04T03:21:06;7.20;73.90
16517;DHT22;8371;52.272;9.746;2023-03-04T03:23:32;7.20;73.90
16517;DHT22;8371;52.272;9.746;2023-03-04T03:25:58;7.30;74.00
16517;DHT22;8371;52.272;9.746;2023-03-04T03:28:24;7.30;74.00
16517;DHT22;8371;52.272;9.746;2023-03-04T03:30:49;7.30;73.90
16517;DHT22;8371;52.272;9.746;2023-03-04T03:33:15;7.30;74.00
16517;DHT22;8371;52.272;9.746;2023-03-04T03:35:41;7.30;73.90
16517;DHT22;8371;52.272;9.746;2023-03-04T03:38:06;7.30;73.90
16517;DHT22;8371;52.272;9.746;2023-03-04T03:40:32;7.30;74.00
16517;DHT22;8371;52.272;9.746;2023-03-04T03:42:57;7.30;74.10
16517;DHT22;8371;52.272;9.746;2023-03-04T03:45:23;7.30;74.00
16517;DHT22;8371;52.272;9.746;2023-03-04T03:47:49;7.30;73.90
16517;DHT22;8371;52.272;9.746;2023-03-04T03:50:15;7.30;74.10
16517;DHT22;8371;52.272;9.746;2023-03-04T03:52:40;7.30;74.10
16517;DHT22;8371;52.272;9.746;2023-03-04T03:55:07;7.30;74.10
16517;DHT22;8371;52.272;9.746;2023-03-04T03:57:32;7.30;74.60
16517;DHT22;8371;52.272;9.746;2023-03-04T03:59:58;7.30;74.10
16517;DHT22;8371;52.272;9.746;2023-03-04T04:02:24;7.30;74.10
16517;DHT22;8371;52.272;9.746;2023-03-04T04:04:49;7.30;74.20
16517;DHT22;8371;52.272;9.746;2023-03-04T04:07:15;7.30;74.20
16517;DHT22;8371;52.272;9.746;2023-03-04T04:09:41;7.30;74.30
16517;DHT22;8371;52.272;9.746;2023-03-04T04:12:07;7.30;74.20
16517;DHT22;8371;52.272;9.746;2023-03-04T04:14:33;7.30;74.20
16517;DHT22;8371;52.272;9.746;2023-03-04T04:16:58;7.30;74.20
16517;DHT22;8371;52.272;9.746;2023-03-04T04:19:24;7.30;74.20
16517;DHT22;8371;52.272;9.746;2023-03-04T04:21:50;7.30;74.20
16517;DHT22;8371;52.272;9.746;2023-03-04T04:24:16;7.30;74.30
16517;DHT22;8371;52.272;9.746;2023-03-04T04:26:42;7.30;74.20
16517;DHT22;8371;52.272;9.746;2023-03-04T04:29:08;7.30;74.20
16517;DHT22;8371;52.272;9.746;2023-03-04T04:31:34;7.30;74.30
16517;DHT22;8371;52.272;9.746;2023-03-04T04:34:00;7.30;74.30
16517;DHT22;8371;52.272;9.746;2023-03-04T04:36:26;7.30;74.30
16517;DHT22;8371;52.272;9.746;2023-03-04T04:38:54;7.30;74.30
16517;DHT22;8371;52.272;9.746;2023-03-04T04:41:25;7.20;74.30
16517;DHT22;8371;52.272;9.746;2023-03-04T04:43:51;7.30;74.40
16517;DHT22;8371;52.272;9.746;2023-03-04T04:46:17;7.20;74.30
16517;DHT22;8371;52.272;9.746;2023-03-04T04:48:43;7.20;74.40
16517;DHT22;8371;52.272;9.746;2023-03-04T04:51:09;7.20;74.30
16517;DHT22;8371;52.272;9.746;2023-03-04T04:53:35;7.20;74.40
16517;DHT22;8371;52.272;9.746;2023-03-04T04:56:13;7.20;74.40
16517;DHT22;8371;52.272;9.746;2023-03-04T04:58:39;7.10;74.60
16517;DHT22;8371;52.272;9.746;2023-03-04T05:01:06;7.10;74.60
16517;DHT22;8371;52.272;9.746;2023-03-04T05:03:33;7.10;74.60
16517;DHT22;8371;52.272;9.746;2023-03-04T05:06:00;7.10;74.80
16517;DHT22;8371;52.272;9.746;2023-03-04T05:08:25;7.10;73.90
16517;DHT22;8371;52.272;9.746;2023-03-04T05:10:52;7.10;74.70
16517;DHT22;8371;52.272;9.746;2023-03-04T05:13:18;7.00;74.70
16517;DHT22;8371;52.272;9.746;2023-03-04T05:15:45;7.00;74.70
16517;DHT22;8371;52.272;9.746;2023-03-04T05:18:10;7.00;74.80
16517;DHT22;8371;52.272;9.746;2023-03-04T05:20:36;7.00;74.80
16517;DHT22;8371;52.272;9.746;2023-03-04T05:23:02;7.00;74.90
16517;DHT22;8371;52.272;9.746;2023-03-04T05:25:27;7.00;74.90
16517;DHT22;8371;52.272;9.746;2023-03-04T05:27:53;7.00;75.00
16517;DHT22;8371;52.272;9.746;2023-03-04T05:30:19;7.00;75.40
16517;DHT22;8371;52.272;9.746;2023-03-04T05:32:44;7.00;75.10
16517;DHT22;8371;52.272;9.746;2023-03-04T05:35:10;7.00;75.10
16517;DHT22;8371;52.272;9.746;2023-03-04T05:37:36;7.00;75.10
16517;DHT22;8371;52.272;9.746;2023-03-04T05:40:02;7.00;75.10
16517;DHT22;8371;52.272;9.746;2023-03-04T05:42:29;7.00;75.20
16517;DHT22;8371;52.272;9.746;2023-03-04T05:44:55;7.00;75.20
16517;DHT22;8371;52.272;9.746;2023-03-04T05:47:21;7.00;75.10
16517;DHT22;8371;52.272;9.746;2023-03-04T05:49:47;7.00;75.30
16517;DHT22;8371;52.272;9.746;2023-03-04T05:52:12;7.00;75.20
16517;DHT22;8371;52.272;9.746;2023-03-04T05:54:38;7.00;75.10
16517;DHT22;8371;52.272;9.746;2023-03-04T05:57:04;7.00;75.20
16517;DHT22;8371;52.272;9.746;2023-03-04T05:59:30;7.00;75.10
16517;DHT22;8371;52.272;9.746;2023-03-04T06:01:55;7.00;75.10
16517;DHT22;8371;52.272;9.746;2023-03-04T06:04:21;7.00;75.10
16517;DHT22;8371;52.272;9.746;2023-03-04T06:06:47;7.00;75.30
16517;DHT22;8371;52.272;9.746;2023-03-04T06:09:13;6.90;75.20
16517;DHT22;8371;52.272;9.746;2023-03-04T06:11:39;6.90;75.10
16517;DHT22;8371;52.272;9.746;2023-03-04T06:14:05;7.00;75.20
16517;DHT22;8371;52.272;9.746;2023-03-04T06:16:30;6.90;75.40
16517;DHT22;8371;52.272;9.746;2023-03-04T06:18:56;6.90;75.40
16517;DHT22;8371;52.272;9.746;2023-03-04T06:21:22;6.90;75.30
16517;DHT22;8371;52.272;9.746;2023-03-04T06:23:47;6.90;75.30
16517;DHT22;8371;52.272;9.746;2023-03-04T06:26:13;6.90;75.70
16517;DHT22;8371;52.272;9.746;2023-03-04T06:28:41;6.90;75.50
16517;DHT22;8371;52.272;9.746;2023-03-04T06:31:06;7.00;75.50
16517;DHT22;8371;52.272;9.746;2023-03-04T06:33:32;6.90;75.50
16517;DHT22;8371;52.272;9.746;2023-03-04T06:35:58;7.00;75.70
16517;DHT22;8371;52.272;9.746;2023-03-04T06:38:24;7.00;75.70
16517;DHT22;8371;52.272;9.746;2023-03-04T06:40:50;7.00;75.70
16517;DHT22;8371;52.272;9.746;2023-03-04T06:43:16;7.00;75.70
16517;DHT22;8371;52.272;9.746;2023-03-04T06:45:42;7.00;75.60
16517;DHT22;8371;52.272;9.746;2023-03-04T06:48:08;7.00;75.50
16517;DHT22;8371;52.272;9.746;2023-03-04T06:50:34;7.00;75.70
16517;DHT22;8371;52.272;9.746;2023-03-04T06:52:59;7.10;75.50
16517;DHT22;8371;52.272;9.746;2023-03-04T06:55:25;7.10;75.60
16517;DHT22;8371;52.272;9.746;2023-03-04T06:57:51;7.10;75.80
16517;DHT22;8371;52.272;9.746;2023-03-04T07:00:17;7.10;75.80
16517;DHT22;8371;52.272;9.746;2023-03-04T07:02:44;7.10;75.80
16517;DHT22;8371;52.272;9.746;2023-03-04T07:05:10;7.20;75.80
16517;DHT22;8371;52.272;9.746;2023-03-04T07:07:37;7.20;75.80
16517;DHT22;8371;52.272;9.746;2023-03-04T07:10:04;7.30;76.00
16517;DHT22;8371;52.272;9.746;2023-03-04T07:12:30;7.30;76.20
16517;DHT22;8371;52.272;9.746;2023-03-04T07:14:55;7.40;76.30
16517;DHT22;8371;52.272;9.746;2023-03-04T07:17:21;7.40;76.20
16517;DHT22;8371;52.272;9.746;2023-03-04T07:19:47;7.50;76.30
16517;DHT22;8371;52.272;9.746;2023-03-04T07:22:12;7.50;76.30
16517;DHT22;8371;52.272;9.746;2023-03-04T07:24:38;7.50;76.20
16517;DHT22;8371;52.272;9.746;2023-03-04T07:27:03;7.60;76.20
16517;DHT22;8371;52.272;9.746;2023-03-04T07:29:32;7.60;76.40
16517;DHT22;8371;52.272;9.746;2023-03-04T07:31:58;7.70;76.30
16517;DHT22;8371;52.272;9.746;2023-03-04T07:34:24;7.70;76.10
16517;DHT22;8371;52.272;9.746;2023-03-04T07:36:49;7.70;76.10
16517;DHT22;8371;52.272;9.746;2023-03-04T07:39:15;7.80;76.10
16517;DHT22;8371;52.272;9.746;2023-03-04T07:41:41;7.80;76.20
16517;DHT22;8371;52.272;9.746;2023-03-04T07:44:07;7.80;76.20
16517;DHT22;8371;52.272;9.746;2023-03-04T07:46:34;7.80;76.30
16517;DHT22;8371;52.272;9.746;2023-03-04T07:49:00;7.90;76.30
16517;DHT22;8371;52.272;9.746;2023-03-04T07:51:26;7.90;76.40
16517;DHT22;8371;52.272;9.746;2023-03-04T07:53:57;8.00;76.60
16517;DHT22;8371;52.272;9.746;2023-03-04T07:56:26;8.10;76.60
16517;DHT22;8371;52.272;9.746;2023-03-04T07:58:52;8.10;76.50
16517;DHT22;8371;52.272;9.746;2023-03-04T08:01:20;8.10;76.30
16517;DHT22;8371;52.272;9.746;2023-03-04T08:03:46;8.10;76.30
16517;DHT22;8371;52.272;9.746;2023-03-04T08:06:14;8.20;76.20
16517;DHT22;8371;52.272;9.746;2023-03-04T08:08:41;8.20;76.20
16517;DHT22;8371;52.272;9.746;2023-03-04T08:11:10;8.20;76.30
16517;DHT22;8371;52.272;9.746;2023-03-04T08:13:36;8.20;76.30
16517;DHT22;8371;52.272;9.746;2023-03-04T08:16:02;8.20;76.60
16517;DHT22;8371;52.272;9.746;2023-03-04T08:18:28;8.30;76.80
16517;DHT22;8371;52.272;9.746;2023-03-04T08:20:54;8.30;76.60
16517;DHT22;8371;52.272;9.746;2023-03-04T08:23:20;8.40;76.70
16517;DHT22;8371;52.272;9.746;2023-03-04T08:25:46;8.40;76.80
16517;DHT22;8371;52.272;9.746;2023-03-04T08:28:12;8.50;76.50
16517;DHT22;8371;52.272;9.746;2023-03-04T08:30:38;8.50;76.30
16517;DHT22;8371;52.272;9.746;2023-03-04T08:33:05;8.50;76.30
16517;DHT22;8371;52.272;9.746;2023-03-04T08:35:31;8.50;76.40
16517;DHT22;8371;52.272;9.746;2023-03-04T08:37:57;8.50;76.20
16517;DHT22;8371;52.272;9.746;2023-03-04T08:40:23;8.50;76.20
16517;DHT22;8371;52.272;9.746;2023-03-04T08:42:50;8.50;76.40
16517;DHT22;8371;52.272;9.746;2023-03-04T08:45:16;8.50;76.30
16517;DHT22;8371;52.272;9.746;2023-03-04T08:47:42;8.50;77.00
16517;DHT22;8371;52.272;9.746;2023-03-04T08:50:08;8.50;76.40
16517;DHT22;8371;52.272;9.746;2023-03-04T08:52:34;8.50;76.50
16517;DHT22;8371;52.272;9.746;2023-03-04T08:55:00;8.50;76.70
16517;DHT22;8371;52.272;9.746;2023-03-04T08:57:26;8.50;76.80
16517;DHT22;8371;52.272;9.746;2023-03-04T08:59:52;8.60;76.70
16517;DHT22;8371;52.272;9.746;2023-03-04T09:02:18;8.60;76.60
16517;DHT22;8371;52.272;9.746;2023-03-04T09:04:43;8.60;76.60
16517;DHT22;8371;52.272;9.746;2023-03-04T09:07:09;8.60;76.80
16517;DHT22;8371;52.272;9.746;2023-03-04T09:09:35;8.60;77.00
16517;DHT22;8371;52.272;9.746;2023-03-04T09:12:01;8.70;77.10
16517;DHT22;8371;52.272;9.746;2023-03-04T09:14:28;8.70;77.20
16517;DHT22;8371;52.272;9.746;2023-03-04T09:16:53;8.80;77.10
16517;DHT22;8371;52.272;9.746;2023-03-04T09:19:19;8.80;77.00
16517;DHT22;8371;52.272;9.746;2023-03-04T09:21:45;8.80;77.00
16517;DHT22;8371;52.272;9.746;2023-03-04T09:24:10;8.90;76.90
16517;DHT22;8371;52.272;9.746;2023-03-04T09:26:36;8.90;76.90
16517;DHT22;8371;52.272;9.746;2023-03-04T09:29:02;9.00;76.70
16517;DHT22;8371;52.272;9.746;2023-03-04T09:31:28;8.90;76.30
16517;DHT22;8371;52.272;9.746;2023-03-04T09:33:56;8.90;76.10
16517;DHT22;8371;52.272;9.746;2023-03-04T09:36:22;8.90;76.00
16517;DHT22;8371;52.272;9.746;2023-03-04T09:38:48;8.80;75.90
16517;DHT22;8371;52.272;9.746;2023-03-04T09:41:20;8.70;76.00
16517;DHT22;8371;52.272;9.746;2023-03-04T09:43:47;8.70;76.40
16517;DHT22;8371;52.272;9.746;2023-03-04T09:46:26;8.60;76.40
16517;DHT22;8371;52.272;9.746;2023-03-04T09:48:50;8.60;76.60
16517;DHT22;8371;52.272;9.746;2023-03-04T09:54:08;8.50;76.60
16517;DHT22;8371;52.272;9.746;2023-03-04T09:56:37;8.50;77.00
16517;DHT22;8371;52.272;9.746;2023-03-04T09:59:08;8.40;77.30
16517;DHT22;8371;52.272;9.746;2023-03-04T10:01:36;8.50;77.40
16517;DHT22;8371;52.272;9.746;2023-03-04T10:04:32;8.50;77.50
16517;DHT22;8371;52.272;9.746;2023-03-04T10:07:00;8.60;77.80
16517;DHT22;8371;52.272;9.746;2023-03-04T10:09:30;8.60;77.70
16517;DHT22;8371;52.272;9.746;2023-03-04T10:12:05;8.60;78.40
16517;DHT22;8371;52.272;9.746;2023-03-04T10:14:39;8.70;77.80
16517;DHT22;8371;52.272;9.746;2023-03-04T10:17:16;8.70;77.60
16517;DHT22;8371;52.272;9.746;2023-03-04T10:22:48;8.60;76.90
16517;DHT22;8371;52.272;9.746;2023-03-04T10:25:21;8.60;76.70
16517;DHT22;8371;52.272;9.746;2023-03-04T10:27:50;8.50;76.70
16517;DHT22;8371;52.272;9.746;2023-03-04T10:33:19;8.50;76.90
16517;DHT22;8371;52.272;9.746;2023-03-04T10:38:38;8.40;76.70
16517;DHT22;8371;52.272;9.746;2023-03-04T10:41:12;8.40;76.50
16517;DHT22;8371;52.272;9.746;2023-03-04T10:43:38;8.40;76.70
16517;DHT22;8371;52.272;9.746;2023-03-04T10:46:04;8.40;76.90
16517;DHT22;8371;52.272;9.746;2023-03-04T10:48:30;8.50;77.20
16517;DHT22;8371;52.272;9.746;2023-03-04T10:51:24;8.50;77.40
16517;DHT22;8371;52.272;9.746;2023-03-04T10:53:55;8.60;77.30
16517;DHT22;8371;52.272;9.746;2023-03-04T10:56:40;8.70;77.10
16517;DHT22;8371;52.272;9.746;2023-03-04T11:01:59;8.80;76.20
16517;DHT22;8371;52.272;9.746;2023-03-04T11:04:31;8.90;76.60
16517;DHT22;8371;52.272;9.746;2023-03-04T11:06:54;8.90;76.00
16517;DHT22;8371;52.272;9.746;2023-03-04T11:09:22;9.00;76.20
16517;DHT22;8371;52.272;9.746;2023-03-04T11:11:50;9.10;76.20
16517;DHT22;8371;52.272;9.746;2023-03-04T11:14:22;9.20;76.20
16517;DHT22;8371;52.272;9.746;2023-03-04T11:17:00;9.20;76.00
16517;DHT22;8371;52.272;9.746;2023-03-04T11:19:37;9.30;75.90
16517;DHT22;8371;52.272;9.746;2023-03-04T11:22:04;9.30;75.60
16517;DHT22;8371;52.272;9.746;2023-03-04T11:24:32;9.30;75.70
16517;DHT22;8371;52.272;9.746;2023-03-04T11:27:02;9.40;76.10
16517;DHT22;8371;52.272;9.746;2023-03-04T11:29:42;9.50;76.90
16517;DHT22;8371;52.272;9.746;2023-03-04T11:32:18;9.60;76.70
16517;DHT22;8371;52.272;9.746;2023-03-04T11:34:56;9.70;76.60
16517;DHT22;8371;52.272;9.746;2023-03-04T11:37:38;9.90;76.70
16517;DHT22;8371;52.272;9.746;2023-03-04T11:40:12;10.00;76.40
16517;DHT22;8371;52.272;9.746;2023-03-04T11:42:45;10.10;75.00
16517;DHT22;8371;52.272;9.746;2023-03-04T11:45:13;10.20;74.60
16517;DHT22;8371;52.272;9.746;2023-03-04T11:50:29;10.00;73.60
16517;DHT22;8371;52.272;9.746;2023-03-04T11:56:03;9.70;74.10
16517;DHT22;8371;52.272;9.746;2023-03-04T11:58:49;9.70;74.70
16517;DHT22;8371;52.272;9.746;2023-03-04T12:01:18;9.60;74.60
16517;DHT22;8371;52.272;9.746;2023-03-04T12:09:22;9.70;76.10
16517;DHT22;8371;52.272;9.746;2023-03-04T12:12:13;9.80;76.30
16517;DHT22;8371;52.272;9.746;2023-03-04T12:14:43;10.00;76.50
16517;DHT22;8371;52.272;9.746;2023-03-04T12:17:31;10.20;76.20
16517;DHT22;8371;52.272;9.746;2023-03-04T12:20:13;10.30;75.70
16517;DHT22;8371;52.272;9.746;2023-03-04T12:22:50;10.50;75.40
16517;DHT22;8371;52.272;9.746;2023-03-04T12:25:34;10.60;74.50
16517;DHT22;8371;52.272;9.746;2023-03-04T12:34:03;10.50;72.60
16517;DHT22;8371;52.272;9.746;2023-03-04T12:36:49;10.30;72.40
16517;DHT22;8371;52.272;9.746;2023-03-04T12:39:37;10.20;72.10
16517;DHT22;8371;52.272;9.746;2023-03-04T12:42:17;10.00;72.60
16517;DHT22;8371;52.272;9.746;2023-03-04T12:47:43;9.80;73.30
16517;DHT22;8371;52.272;9.746;2023-03-04T12:50:30;9.80;73.30
16517;DHT22;8371;52.272;9.746;2023-03-04T12:55:48;9.90;73.40
16517;DHT22;8371;52.272;9.746;2023-03-04T12:58:18;9.90;73.40
16517;DHT22;8371;52.272;9.746;2023-03-04T13:01:08;9.90;73.20
16517;DHT22;8371;52.272;9.746;2023-03-04T13:06:48;10.00;73.20
16517;DHT22;8371;52.272;9.746;2023-03-04T13:09:29;10.00;73.30
16517;DHT22;8371;52.272;9.746;2023-03-04T13:12:01;10.10;72.90
16517;DHT22;8371;52.272;9.746;2023-03-04T13:14:30;10.10;72.90
16517;DHT22;8371;52.272;9.746;2023-03-04T13:17:01;10.20;73.00
16517;DHT22;8371;52.272;9.746;2023-03-04T13:19:48;10.20;72.70
16517;DHT22;8371;52.272;9.746;2023-03-04T13:22:33;10.30;72.20
16517;DHT22;8371;52.272;9.746;2023-03-04T13:25:28;10.20;70.90
16517;DHT22;8371;52.272;9.746;2023-03-04T13:30:40;10.00;70.30
16517;DHT22;8371;52.272;9.746;2023-03-04T13:35:53;9.80;70.60
16517;DHT22;8371;52.272;9.746;2023-03-04T13:38:22;9.80;70.70
16517;DHT22;8371;52.272;9.746;2023-03-04T13:41:12;9.70;71.00
16517;DHT22;8371;52.272;9.746;2023-03-04T13:43:40;9.70;71.30
16517;DHT22;8371;52.272;9.746;2023-03-04T13:51:39;9.70;71.80
16517;DHT22;8371;52.272;9.746;2023-03-04T13:56:46;9.70;72.00
16517;DHT22;8371;52.272;9.746;2023-03-04T14:06:50;9.90;72.00
16517;DHT22;8371;52.272;9.746;2023-03-04T14:09:19;9.90;72.00
16517;DHT22;8371;52.272;9.746;2023-03-04T14:11:46;9.90;72.00
16517;DHT22;8371;52.272;9.746;2023-03-04T14:14:15;9.90;71.90
16517;DHT22;8371;52.272;9.746;2023-03-04T14:16:56;10.00;72.00
16517;DHT22;8371;52.272;9.746;2023-03-04T14:19:28;10.00;72.00
16517;DHT22;8371;52.272;9.746;2023-03-04T14:21:55;10.00;72.00
16517;DHT22;8371;52.272;9.746;2023-03-04T14:24:21;10.00;72.00
16517;DHT22;8371;52.272;9.746;2023-03-04T14:26:48;10.10;72.10
16517;DHT22;8371;52.272;9.746;2023-03-04T14:31:50;10.20;72.00
16517;DHT22;8371;52.272;9.746;2023-03-04T14:34:23;10.20;71.60
16517;DHT22;8371;52.272;9.746;2023-03-04T14:36:46;10.20;71.40
16517;DHT22;8371;52.272;9.746;2023-03-04T14:39:16;10.20;71.10
16517;DHT22;8371;52.272;9.746;2023-03-04T14:41:44;10.10;71.00
16517;DHT22;8371;52.272;9.746;2023-03-04T14:44:33;10.10;71.00
16517;DHT22;8371;52.272;9.746;2023-03-04T14:47:44;10.00;70.80
16517;DHT22;8371;52.272;9.746;2023-03-04T14:49:34;9.90;70.40
16517;DHT22;8371;52.272;9.746;2023-03-04T14:52:00;9.80;70.00
16517;DHT22;8371;52.272;9.746;2023-03-04T14:54:32;9.70;69.90
16517;DHT22;8371;52.272;9.746;2023-03-04T14:57:01;9.60;69.80
16517;DHT22;8371;52.272;9.746;2023-03-04T14:59:29;9.40;69.60
16517;DHT22;8371;52.272;9.746;2023-03-04T15:02:16;9.30;69.60
16517;DHT22;8371;52.272;9.746;2023-03-04T15:04:44;9.10;69.90
16517;DHT22;8371;52.272;9.746;2023-03-04T15:07:20;9.00;70.50
16517;DHT22;8371;52.272;9.746;2023-03-04T15:09:51;8.90;70.70
16517;DHT22;8371;52.272;9.746;2023-03-04T15:12:23;8.80;70.90
16517;DHT22;8371;52.272;9.746;2023-03-04T15:14:52;8.80;71.00
16517;DHT22;8371;52.272;9.746;2023-03-04T15:17:33;8.70;71.10
16517;DHT22;8371;52.272;9.746;2023-03-04T15:22:36;8.70;71.60
16517;DHT22;8371;52.272;9.746;2023-03-04T15:25:03;8.70;71.70
16517;DHT22;8371;52.272;9.746;2023-03-04T15:27:29;8.70;72.00
16517;DHT22;8371;52.272;9.746;2023-03-04T15:29:57;8.70;72.00
16517;DHT22;8371;52.272;9.746;2023-03-04T15:32:28;8.80;72.10
16517;DHT22;8371;52.272;9.746;2023-03-04T15:34:54;8.80;72.10
16517;DHT22;8371;52.272;9.746;2023-03-04T15:37:22;8.80;71.90
16517;DHT22;8371;52.272;9.746;2023-03-04T15:39:49;8.80;71.90
16517;DHT22;8371;52.272;9.746;2023-03-04T15:42:15;8.90;71.70
16517;DHT22;8371;52.272;9.746;2023-03-04T15:44:41;8.90;71.50
16517;DHT22;8371;52.272;9.746;2023-03-04T15:47:09;8.80;70.80
16517;DHT22;8371;52.272;9.746;2023-03-04T15:49:36;8.70;70.20
16517;DHT22;8371;52.272;9.746;2023-03-04T15:52:03;8.50;69.90
16517;DHT22;8371;52.272;9.746;2023-03-04T15:54:29;8.50;70.00
16517;DHT22;8371;52.272;9.746;2023-03-04T15:56:55;8.10;70.00
16517;DHT22;8371;52.272;9.746;2023-03-04T15:59:23;8.00;70.30
16517;DHT22;8371;52.272;9.746;2023-03-04T16:01:49;7.80;70.50
16517;DHT22;8371;52.272;9.746;2023-03-04T16:04:15;7.60;70.80
16517;DHT22;8371;52.272;9.746;2023-03-04T16:06:43;7.50;71.00
16517;DHT22;8371;52.272;9.746;2023-03-04T16:09:12;7.40;71.20
16517;DHT22;8371;52.272;9.746;2023-03-04T16:11:41;7.40;71.60
16517;DHT22;8371;52.272;9.746;2023-03-04T16:14:10;7.30;71.60
16517;DHT22;8371;52.272;9.746;2023-03-04T16:16:37;7.30;71.80
16517;DHT22;8371;52.272;9.746;2023-03-04T16:19:03;7.30;71.90
16517;DHT22;8371;52.272;9.746;2023-03-04T16:21:28;7.20;72.00
16517;DHT22;8371;52.272;9.746;2023-03-04T16:23:54;7.30;72.00
16517;DHT22;8371;52.272;9.746;2023-03-04T16:26:21;7.30;72.10
16517;DHT22;8371;52.272;9.746;2023-03-04T16:28:48;7.30;72.20
16517;DHT22;8371;52.272;9.746;2023-03-04T16:31:15;7.30;72.20
16517;DHT22;8371;52.272;9.746;2023-03-04T16:33:41;7.30;73.00
16517;DHT22;8371;52.272;9.746;2023-03-04T16:36:22;7.40;72.20
16517;DHT22;8371;52.272;9.746;2023-03-04T16:38:48;7.40;72.00
16517;DHT22;8371;52.272;9.746;2023-03-04T16:41:16;7.40;72.00
16517;DHT22;8371;52.272;9.746;2023-03-04T16:43:42;7.30;71.90
16517;DHT22;8371;52.272;9.746;2023-03-04T16:46:11;7.30;71.90
16517;DHT22;8371;52.272;9.746;2023-03-04T16:48:37;7.30;71.90
16517;DHT22;8371;52.272;9.746;2023-03-04T16:51:12;7.30;72.50
16517;DHT22;8371;52.272;9.746;2023-03-04T16:53:39;7.30;71.90
16517;DHT22;8371;52.272;9.746;2023-03-04T16:56:10;7.30;71.90
16517;DHT22;8371;52.272;9.746;2023-03-04T16:58:34;7.30;71.90
16517;DHT22;8371;52.272;9.746;2023-03-04T17:00:59;7.30;71.90
16517;DHT22;8371;52.272;9.746;2023-03-04T17:03:25;7.20;71.70
16517;DHT22;8371;52.272;9.746;2023-03-04T17:05:51;7.20;71.70
16517;DHT22;8371;52.272;9.746;2023-03-04T17:08:17;7.10;71.60
16517;DHT22;8371;52.272;9.746;2023-03-04T17:10:42;7.00;71.70
16517;DHT22;8371;52.272;9.746;2023-03-04T17:13:08;6.90;71.80
16517;DHT22;8371;52.272;9.746;2023-03-04T17:15:34;6.90;72.00
16517;DHT22;8371;52.272;9.746;2023-03-04T17:17:59;6.80;72.00
16517;DHT22;8371;52.272;9.746;2023-03-04T17:20:25;6.80;72.20